Time;durP1;ratioP1;P1;durP2;ratioP2;P2;SDS_P1;SDS_P2;PMS_P1;PMS_P2;Temp;Humidity;BMP_temperature;BMP_pressure;BME280_temperature;BME280_humidity;BME280_pressure;Samples;Min_cycle;Max_cycle;Signal;HPM_P1;HPM_P2
2022/07/31 00:00:38;;;;;;;2.20;1.30;;;22.50;77.50;;;23.12;68.59;101169.09;5171247;28;20586;-72
2022/07/31 00:03:11;;;;;;;2.03;1.40;;;22.60;77.60;;;23.10;68.04;101163.81;5188461;28;20042;-73
2022/07/31 00:05:43;;;;;;;2.03;1.02;;;22.50;77.20;;;23.10;68.06;101162.94;5188437;28;20052;-73
2022/07/31 00:08:15;;;;;;;1.80;1.17;;;22.50;77.20;;;23.08;68.62;101165.56;5188632;28;20121;-72
2022/07/31 00:10:47;;;;;;;1.65;1.08;;;22.50;77.70;;;23.06;68.95;101158.53;5188728;28;20046;-73
2022/07/31 00:13:19;;;;;;;1.70;1.35;;;22.50;78.00;;;23.05;69.38;101164.75;5188498;28;20046;-73
2022/07/31 00:15:53;;;;;;;2.38;1.10;;;22.40;78.40;;;23.01;70.35;101164.75;5188751;28;20053;-73
2022/07/31 00:18:25;;;;;;;1.50;1.30;;;22.40;79.00;;;22.97;70.60;101157.72;5188412;28;20133;-73
2022/07/31 00:20:57;;;;;;;1.92;1.17;;;22.40;79.40;;;22.93;71.61;101158.66;5188677;28;20042;-72
2022/07/31 00:23:29;;;;;;;1.35;1.02;;;22.40;80.20;;;22.89;72.09;101161.38;5187538;28;20117;-72
2022/07/31 00:26:01;;;;;;;1.60;1.10;;;22.30;81.30;;;22.81;72.57;101156.06;5171110;28;20049;-73
2022/07/31 00:28:34;;;;;;;1.55;1.30;;;22.30;81.20;;;22.76;72.89;101160.59;5188174;28;20163;-72
2022/07/31 00:31:07;;;;;;;1.30;1.15;;;22.10;81.40;;;22.68;73.49;101157.97;5170664;28;20149;-72
2022/07/31 00:33:39;;;;;;;1.30;1.10;;;22.10;82.00;;;22.64;73.56;101155.38;5170584;28;20049;-73
2022/07/31 00:36:12;;;;;;;1.20;1.10;;;22.10;82.30;;;22.60;74.08;101154.50;5170412;28;20144;-74
2022/07/31 00:38:44;;;;;;;3.78;1.58;;;22.00;82.70;;;22.57;75.00;101153.66;5170157;28;20554;-73
2022/07/31 00:41:16;;;;;;;1.95;1.30;;;22.00;83.50;;;22.55;74.76;101150.13;5187743;28;20509;-73
2022/07/31 00:43:49;;;;;;;1.52;1.35;;;22.00;83.60;;;22.53;74.54;101150.16;5170478;28;20048;-74
2022/07/31 00:46:22;;;;;;;1.88;1.38;;;21.90;83.50;;;22.50;74.02;101136.91;5169460;28;20045;-73
2022/07/31 00:48:54;;;;;;;1.48;1.20;;;21.90;83.30;;;22.46;74.01;101135.16;5170076;28;20046;-73
2022/07/31 00:51:26;;;;;;;1.55;1.30;;;21.90;83.40;;;22.43;74.38;101141.41;5187548;28;20588;-73
2022/07/31 00:53:59;;;;;;;1.58;1.00;;;21.90;83.70;;;22.39;74.95;101141.41;5170373;28;20050;-73
2022/07/31 00:56:31;;;;;;;2.10;1.40;;;21.80;84.00;;;22.36;75.03;101130.81;5187815;28;20443;-73
2022/07/31 00:59:04;;;;;;;1.50;1.10;;;21.80;84.30;;;22.28;75.53;101128.22;5170052;28;20050;-73
2022/07/31 01:01:38;;;;;;;1.65;1.17;;;21.70;84.80;;;22.22;75.71;101128.25;5186951;28;20041;-73
2022/07/31 01:04:11;;;;;;;1.42;1.10;;;21.70;85.00;;;22.17;75.93;101122.13;5169734;28;20127;-73
2022/07/31 01:06:43;;;;;;;2.05;1.20;;;21.60;85.30;;;22.11;76.23;101117.75;5169990;28;20081;-72
2022/07/31 01:09:16;;;;;;;1.38;1.20;;;21.50;85.60;;;22.07;76.40;101120.41;5169765;28;20582;-73
2022/07/31 01:11:52;;;;;;;1.30;1.20;;;21.50;85.90;;;22.02;76.50;101122.19;5169449;28;20045;-73
2022/07/31 01:14:29;;;;;;;2.00;1.15;;;21.40;86.10;;;21.97;76.25;101118.69;5169740;28;20523;-72
2022/07/31 01:17:06;;;;;;;2.38;1.40;;;21.40;86.10;;;21.93;76.86;101115.19;5169562;28;20049;-74
2022/07/31 01:19:41;;;;;;;1.67;1.10;;;21.40;87.30;;;21.87;76.96;101113.44;5169426;28;20097;-73
2022/07/31 01:22:35;;;;;;;1.42;1.20;;;21.30;86.80;;;21.83;77.86;101118.78;5149438;28;20074;-73
2022/07/31 01:25:13;;;;;;;2.97;1.20;;;21.30;87.50;;;21.77;77.82;101118.81;5149447;28;20054;-73
2022/07/31 01:28:03;;;;;;;1.77;1.10;;;21.20;87.80;;;21.73;78.51;101117.97;5165390;28;20058;-73
2022/07/31 01:30:46;;;;;;;1.83;1.40;;;21.20;88.40;;;21.68;78.96;101117.09;5149505;28;20054;-73
2022/07/31 01:33:23;;;;;;;1.45;1.20;;;21.10;89.00;;;21.62;79.45;101117.13;5148874;28;20137;-72
2022/07/31 01:36:03;;;;;;;1.63;1.50;;;21.10;89.50;;;21.57;79.68;101118.94;5149310;28;20089;-72
2022/07/31 01:38:44;;;;;;;2.38;1.77;;;21.00;89.90;;;21.52;79.99;101112.78;5149064;28;20423;-73
2022/07/31 01:41:21;;;;;;;1.75;1.33;;;21.00;90.10;;;21.45;80.82;101111.03;5149283;28;20050;-73
2022/07/31 01:43:56;;;;;;;1.88;1.20;;;20.90;90.40;;;21.40;81.38;101105.78;5149365;28;20534;-72
2022/07/31 01:46:33;;;;;;;1.52;1.35;;;20.80;90.70;;;21.34;81.61;101106.69;5149036;28;20054;-72
2022/07/31 01:49:06;;;;;;;2.13;1.95;;;20.80;90.90;;;21.29;81.94;101103.16;5165177;28;20427;-72
2022/07/31 01:51:41;;;;;;;2.95;1.58;;;20.80;91.20;;;21.23;82.05;101097.84;5148811;28;20141;-73
2022/07/31 01:54:17;;;;;;;1.60;1.40;;;20.70;91.30;;;21.19;82.25;101101.41;5148755;28;20138;-73
2022/07/31 01:56:49;;;;;;;1.63;1.30;;;20.60;91.40;;;21.13;82.49;101096.13;5149073;28;20137;-73
2022/07/31 01:59:23;;;;;;;1.98;1.35;;;20.60;92.00;;;21.11;83.10;101100.53;5148651;28;20590;-73
2022/07/31 02:02:16;;;;;;;2.40;1.58;;;20.60;92.00;;;21.07;83.00;101101.44;5166242;28;20132;-73
2022/07/31 02:04:50;;;;;;;1.73;1.40;;;20.50;92.10;;;21.04;82.97;101101.44;5149141;28;20050;-73
2022/07/31 02:07:24;;;;;;;1.63;1.25;;;20.50;92.20;;;21.01;83.10;101101.47;5148701;28;20047;-73
2022/07/31 02:09:57;;;;;;;2.47;1.48;;;20.50;92.30;;;20.97;83.01;101103.22;5148655;28;20058;-73
2022/07/31 02:12:31;;;;;;;1.65;1.40;;;20.40;92.30;;;20.93;82.54;101105.88;5148387;28;20112;-73
2022/07/31 02:15:08;;;;;;;2.53;1.48;;;20.40;92.30;;;20.91;82.82;101097.06;5148435;28;20141;-73
2022/07/31 02:17:45;;;;;;;1.65;1.30;;;20.40;92.50;;;20.88;82.85;101105.94;5148638;28;20085;-74
2022/07/31 02:20:37;;;;;;;1.30;1.20;;;20.40;92.60;;;20.85;83.12;101100.63;5166208;28;20147;-72
2022/07/31 02:23:10;;;;;;;1.60;1.50;;;20.30;92.70;;;20.81;83.46;101097.13;5148317;28;20372;-72
2022/07/31 02:25:45;;;;;;;2.50;1.75;;;20.30;92.90;;;20.78;83.62;101097.09;5148432;28;20419;-72
2022/07/31 02:28:20;;;;;;;1.88;1.50;;;20.30;93.10;;;20.77;84.04;101108.59;5148141;28;20101;-72
2022/07/31 02:30:53;;;;;;;1.80;1.45;;;20.30;93.30;;;20.75;84.29;101104.19;5148186;28;20050;-73
2022/07/31 02:33:27;;;;;;;2.05;1.48;;;20.20;93.50;;;20.73;84.44;101095.34;5165540;28;20062;-73
2022/07/31 02:36:01;;;;;;;1.40;1.30;;;20.20;93.60;;;20.70;84.54;101101.53;5148162;28;20078;-73
2022/07/31 02:38:36;;;;;;;2.45;1.20;;;20.20;94.00;;;20.68;84.76;101098.03;5147982;28;20157;-73
2022/07/31 02:41:12;;;;;;;2.92;1.63;;;20.20;93.90;;;20.67;85.00;101095.34;5148156;28;20510;-72
2022/07/31 02:43:45;;;;;;;2.53;1.42;;;20.20;94.30;;;20.66;85.52;101102.41;5148041;28;20100;-72
2022/07/31 02:46:24;;;;;;;2.08;1.50;;;20.20;94.30;;;20.66;84.67;101099.78;5148026;28;20518;-73
2022/07/31 02:48:58;;;;;;;2.25;1.55;;;20.10;94.10;;;20.67;83.29;101096.25;5148092;28;20054;-72
2022/07/31 02:51:31;;;;;;;1.52;1.40;;;20.20;93.70;;;20.71;82.81;101087.41;5164125;28;20042;-72
2022/07/31 02:54:04;;;;;;;1.70;1.40;;;20.20;93.60;;;20.74;83.03;101097.13;5165340;28;20092;-75
2022/07/31 02:56:38;;;;;;;1.73;1.50;;;20.20;93.70;;;20.75;83.11;101093.59;5147581;28;20145;-72
2022/07/31 02:59:10;;;;;;;1.63;1.35;;;20.20;93.70;;;20.74;83.10;101086.53;5147619;28;20141;-72
2022/07/31 03:02:05;;;;;;;2.00;1.48;;;20.20;93.80;;;20.74;82.83;101089.19;5152315;28;20038;-74
2022/07/31 03:04:46;;;;;;;1.60;1.35;;;20.20;93.70;;;20.73;82.36;101085.63;5167904;28;20151;-72
2022/07/31 03:07:18;;;;;;;1.75;1.45;;;20.20;93.50;;;20.73;82.21;101088.28;5167826;28;20058;-72
2022/07/31 03:09:51;;;;;;;1.35;1.23;;;20.20;93.50;;;20.74;82.66;101092.72;5167315;28;20050;-73
2022/07/31 03:12:46;;;;;;;1.90;1.30;;;20.20;93.70;;;20.76;82.80;101090.06;5185769;28;20053;-73
2022/07/31 03:15:22;;;;;;;1.60;1.45;;;20.30;93.80;;;20.75;83.17;101089.16;5167459;28;20046;-73
2022/07/31 03:17:55;;;;;;;1.75;1.40;;;20.30;93.90;;;20.74;83.96;101074.16;5167779;28;20046;-72
2022/07/31 03:20:39;;;;;;;1.73;1.55;;;20.20;94.50;;;20.73;84.69;101075.03;5167842;28;20054;-74
2022/07/31 03:23:13;;;;;;;1.55;1.30;;;20.30;94.50;;;20.73;85.07;101076.78;5167695;28;20148;-73
2022/07/31 03:26:00;;;;;;;1.75;1.60;;;20.20;94.70;;;20.70;85.35;101072.41;5167616;28;20199;-73
2022/07/31 03:28:34;;;;;;;2.30;1.50;;;20.20;94.90;;;20.69;85.55;101078.59;5167390;28;20057;-74
2022/07/31 03:31:07;;;;;;;2.25;1.48;;;20.20;95.00;;;20.70;84.99;101087.41;5167996;28;20054;-74
2022/07/31 03:33:41;;;;;;;;;;;20.20;94.90;;;20.69;84.45;101110.38;5168016;28;20072;-73
2022/07/31 03:36:15;;;;;;;1.98;1.60;;;20.20;94.70;;;20.62;84.55;101116.56;5167442;28;20205;-72
2022/07/31 03:38:47;;;;;;;2.97;1.52;;;20.20;94.70;;;20.62;84.09;101110.41;5167494;28;20042;-75
2022/07/31 03:41:46;;;;;;;5.10;1.92;;;20.20;94.60;;;20.64;83.29;101114.78;5181262;28;20530;-73
2022/07/31 03:44:19;;;;;;;2.25;1.60;;;20.20;94.30;;;20.67;83.40;101105.94;5167507;28;20439;-73
2022/07/31 03:46:53;;;;;;;2.30;1.63;;;20.20;94.40;;;20.70;83.09;101112.13;5167600;28;20515;-73
2022/07/31 03:49:26;;;;;;;2.20;1.40;;;20.20;94.30;;;20.73;83.23;101104.16;5185226;28;20065;-73
2022/07/31 03:52:00;;;;;;;1.42;1.33;;;20.20;94.40;;;20.76;83.72;101105.94;5167243;28;20550;-73
2022/07/31 03:54:32;;;;;;;1.60;1.50;;;20.30;94.50;;;20.78;83.96;101099.75;5167118;28;20045;-73
2022/07/31 03:57:19;;;;;;;2.47;2.10;;;20.30;94.60;;;20.78;83.36;101094.44;5167494;28;20430;-73
2022/07/31 03:59:56;;;;;;;2.78;1.90;;;20.30;94.50;;;20.81;82.49;101096.22;5167021;28;20054;-74
2022/07/31 04:02:29;;;;;;;1.75;1.58;;;20.30;94.20;;;20.82;82.07;101101.53;5167400;28;20525;-73
2022/07/31 04:05:10;;;;;;;1.90;1.50;;;20.40;94.00;;;20.85;81.76;101092.66;5167340;28;20574;-74
2022/07/31 04:07:44;;;;;;;1.85;1.60;;;20.30;93.90;;;20.86;82.08;101102.38;5167404;28;20046;-72
2022/07/31 04:10:16;;;;;;;2.22;1.65;;;20.40;94.20;;;20.89;82.43;101101.50;5167333;28;20069;-73
2022/07/31 04:12:49;;;;;;;1.90;1.63;;;20.40;94.10;;;20.89;82.73;101101.50;5167194;28;20057;-73
2022/07/31 04:15:21;;;;;;;2.63;1.55;;;20.40;94.20;;;20.89;82.96;101090.91;5167473;28;20050;-74
2022/07/31 04:17:53;;;;;;;2.70;1.63;;;20.40;94.30;;;20.90;82.64;101093.53;5167292;28;20050;-73
2022/07/31 04:20:31;;;;;;;2.20;1.30;;;20.40;94.20;;;20.92;83.25;101096.19;5168027;28;20056;-72
2022/07/31 04:23:05;;;;;;;3.15;1.63;;;20.40;94.40;;;20.94;83.33;101097.09;5171278;28;20050;-72
2022/07/31 04:26:00;;;;;;;3.92;1.50;;;20.40;94.50;;;20.96;82.86;101113.84;5169173;28;20049;-73
2022/07/31 04:28:49;;;;;;;1.67;1.52;;;20.40;94.30;;;20.98;82.22;101106.75;5170879;28;20045;-72
2022/07/31 04:31:21;;;;;;;2.58;1.80;;;20.50;94.10;;;21.00;81.68;101105.91;5170997;28;20125;-73
2022/07/31 04:33:54;;;;;;;2.38;1.50;;;20.50;94.00;;;21.03;82.10;101111.16;5170675;28;20045;-73
2022/07/31 04:36:26;;;;;;;1.63;1.40;;;20.50;94.00;;;21.05;81.92;101108.50;5170688;28;20312;-73
2022/07/31 04:39:01;;;;;;;1.90;1.40;;;20.50;94.00;;;21.08;81.91;101103.22;5327823;23;20036;-71
2022/07/31 04:41:34;;;;;;;2.05;1.58;;;20.60;94.00;;;21.12;81.82;101104.94;5225572;28;20044;-70
2022/07/31 04:44:06;;;;;;;2.25;1.45;;;20.60;94.00;;;21.14;81.82;101103.19;5227855;28;20049;-71
2022/07/31 04:46:59;;;;;;;1.35;1.25;;;20.60;94.00;;;21.17;82.17;101097.00;5227327;28;20046;-70
2022/07/31 04:49:33;;;;;;;3.58;1.60;;;20.60;94.10;;;21.14;81.97;101095.25;5227171;28;20053;-71
2022/07/31 04:52:07;;;;;;;2.83;1.80;;;20.70;94.00;;;21.13;81.79;101098.78;5227511;28;20060;-71
2022/07/31 04:54:42;;;;;;;1.90;1.70;;;20.60;94.00;;;21.13;81.73;101106.75;5227352;28;20045;-70
2022/07/31 04:57:17;;;;;;;2.40;1.90;;;20.70;93.90;;;21.16;81.94;101100.53;5227315;28;20696;-70
2022/07/31 04:59:51;;;;;;;1.95;1.63;;;20.60;94.00;;;21.18;82.04;101104.94;5227218;28;20049;-71
2022/07/31 05:02:23;;;;;;;2.88;2.55;;;20.70;94.10;;;21.19;81.76;101104.06;5227162;28;20421;-71
2022/07/31 05:04:55;;;;;;;2.22;2.03;;;20.70;94.00;;;21.12;81.11;101099.66;5228983;28;20040;-70
2022/07/31 05:07:27;;;;;;;2.35;1.90;;;20.60;93.70;;;21.15;81.44;101102.31;5227128;28;20049;-71
2022/07/31 05:10:01;;;;;;;1.92;1.75;;;20.60;93.80;;;21.19;81.82;101112.03;5226855;28;20131;-71
2022/07/31 05:12:35;;;;;;;2.90;2.38;;;20.70;94.00;;;21.23;81.93;101107.56;5227134;28;20477;-71
2022/07/31 05:15:09;;;;;;;2.15;1.55;;;20.70;94.00;;;21.26;81.93;101107.56;5227370;28;20136;-71
2022/07/31 05:17:41;;;;;;;1.73;1.40;;;20.80;94.00;;;21.27;81.42;101110.22;5227250;28;20114;-70
2022/07/31 05:20:31;;;;;;;1.85;1.60;;;20.80;93.90;;;21.30;81.55;101104.91;5228671;28;20056;-71
2022/07/31 05:23:25;;;;;;;2.45;1.45;;;20.80;93.90;;;21.34;81.37;101111.97;5226786;28;20083;-72
2022/07/31 05:26:23;;;;;;;3.03;1.95;;;20.80;93.90;;;21.38;81.27;101105.75;5215776;28;20472;-71
2022/07/31 05:29:00;;;;;;;1.70;1.40;;;20.90;93.80;;;21.44;81.56;101109.28;5226753;28;20068;-71
2022/07/31 05:31:33;;;;;;;2.83;1.60;;;20.90;93.90;;;21.48;82.38;101118.97;5226566;28;20045;-71
2022/07/31 05:34:05;;;;;;;2.38;1.80;;;20.90;94.10;;;21.55;82.82;101120.72;5226141;28;20045;-72
2022/07/31 05:36:37;;;;;;;2.00;1.60;;;21.00;94.30;;;21.59;82.84;101118.06;5226647;28;20095;-71
2022/07/31 05:39:11;;;;;;;2.75;1.75;;;21.00;94.30;;;21.65;83.14;101125.09;5226198;28;20053;-70
2022/07/31 05:41:49;;;;;;;2.33;1.50;;;21.10;94.50;;;21.69;83.38;101118.88;5227786;28;20200;-70
2022/07/31 05:44:21;;;;;;;1.75;1.60;;;21.10;94.50;;;21.76;82.98;101117.94;5228236;28;20429;-70
2022/07/31 05:46:55;;;;;;;2.20;1.85;;;21.20;94.50;;;21.83;82.51;101118.78;5226518;28;20045;-70
2022/07/31 05:49:27;;;;;;;2.13;1.52;;;21.30;94.30;;;21.90;81.96;101110.75;5225972;28;20057;-70
2022/07/31 05:52:01;;;;;;;2.40;1.80;;;21.30;94.40;;;22.00;81.77;101108.94;5226232;28;20144;-70
2022/07/31 05:54:34;;;;;;;1.83;1.55;;;21.40;94.10;;;22.12;81.25;101103.56;5226023;28;20037;-71
2022/07/31 05:57:26;;;;;;;2.83;1.83;;;21.50;94.20;;;22.25;80.87;101104.34;5227877;28;20044;-71
2022/07/31 05:59:58;;;;;;;2.65;1.90;;;21.60;93.80;;;22.38;80.46;101106.00;5225991;28;20048;-69
2022/07/31 06:02:30;;;;;;;2.42;2.20;;;21.70;93.70;;;22.48;79.45;101107.69;5226125;28;20417;-68
2022/07/31 06:05:12;;;;;;;2.83;2.15;;;21.80;93.30;;;22.58;79.07;101110.25;5226003;28;20506;-68
2022/07/31 06:07:45;;;;;;;2.22;1.50;;;21.90;93.10;;;22.68;78.40;101109.25;5226093;28;20509;-69
2022/07/31 06:10:18;;;;;;;4.32;2.50;;;22.00;92.90;;;22.79;78.21;101110.03;5225412;28;20041;-69
2022/07/31 06:12:51;;;;;;;3.60;1.98;;;22.10;92.70;;;22.91;78.13;101112.59;5225832;28;20055;-69
2022/07/31 06:15:24;;;;;;;4.30;2.30;;;22.20;92.80;;;23.00;78.09;101116.94;5225748;28;20412;-69
2022/07/31 06:17:57;;;;;;;3.78;1.80;;;22.30;92.70;;;23.05;77.60;101114.22;5225781;28;20136;-69
2022/07/31 06:20:34;;;;;;;2.40;1.70;;;22.40;92.50;;;23.16;77.76;101109.66;5225681;28;20102;-69
2022/07/31 06:23:07;;;;;;;2.75;1.90;;;22.40;92.50;;;23.27;77.21;101108.63;5225872;28;20159;-69
2022/07/31 06:25:42;;;;;;;2.65;1.85;;;22.50;92.30;;;23.42;76.59;101104.91;5225548;28;20052;-69
2022/07/31 06:28:15;;;;;;;2.50;1.67;;;22.70;92.10;;;23.62;75.57;101107.31;5225457;28;20513;-69
2022/07/31 06:30:48;;;;;;;4.50;1.80;;;22.80;91.80;;;23.84;74.48;101113.22;5225626;28;20072;-68
2022/07/31 06:33:20;;;;;;;3.17;1.98;;;23.00;91.40;;;24.14;74.54;101111.88;5226848;28;20041;-69
2022/07/31 06:35:53;;;;;;;3.08;1.83;;;23.20;91.40;;;24.38;73.47;101109.72;5225531;28;20060;-69
2022/07/31 06:38:41;;;;;;;3.25;1.75;;;23.40;91.10;;;24.54;72.76;101109.44;5225035;28;20041;-69
2022/07/31 06:41:46;;;;;;;3.88;2.03;;;23.60;90.70;;;24.59;71.81;101110.25;5172213;28;20405;-68
2022/07/31 06:44:40;;;;;;;3.15;1.60;;;23.70;90.20;;;24.54;71.72;101121.88;5184735;28;20045;-69
2022/07/31 06:47:31;;;;;;;3.60;1.67;;;23.70;90.00;;;24.45;71.55;101116.69;5226796;28;20059;-69
2022/07/31 06:50:10;;;;;;;3.03;1.73;;;23.60;89.60;;;24.34;72.24;101122.22;5226699;28;20049;-69
2022/07/31 06:52:44;;;;;;;2.38;1.42;;;23.60;89.80;;;24.34;72.74;101115.13;5224981;28;20049;-69
2022/07/31 06:55:17;;;;;;;2.33;1.50;;;23.60;90.10;;;24.36;73.20;101112.41;5225189;28;20136;-70
2022/07/31 06:57:49;;;;;;;3.03;1.55;;;23.60;90.20;;;24.41;73.64;101110.56;5224892;28;20073;-69
2022/07/31 07:00:23;;;;;;;3.60;1.60;;;23.60;90.60;;;24.46;73.51;101108.69;5224932;28;20069;-69
2022/07/31 07:02:56;;;;;;;2.50;1.45;;;23.60;90.30;;;24.50;73.03;101101.50;5225041;28;20094;-68
2022/07/31 07:05:30;;;;;;;2.42;1.60;;;23.70;90.30;;;24.54;72.80;101108.56;5224974;28;20056;-65
2022/07/31 07:08:05;;;;;;;2.67;1.70;;;23.70;90.00;;;24.59;71.09;101104.03;5224867;28;20041;-66
2022/07/31 07:10:39;;;;;;;2.05;1.38;;;23.80;88.90;;;24.57;71.15;101098.69;5224893;28;20049;-65
2022/07/31 07:13:26;;;;;;;1.90;1.30;;;23.80;88.50;;;24.57;70.37;101106.69;5225026;28;20103;-65
2022/07/31 07:16:00;;;;;;;2.33;1.40;;;23.80;87.70;;;24.51;69.92;101105.94;5224973;28;20045;-66
2022/07/31 07:18:32;;;;;;;1.85;1.30;;;23.80;87.60;;;24.40;70.19;101105.25;5224721;28;20080;-65
2022/07/31 07:21:05;;;;;;;2.45;1.40;;;23.70;87.00;;;24.31;70.59;101108.91;5224773;28;20048;-66
2022/07/31 07:23:37;;;;;;;2.22;1.30;;;23.70;87.20;;;24.25;71.44;101109.00;5224966;28;20564;-66
2022/07/31 07:26:30;;;;;;;1.58;1.20;;;23.60;87.50;;;24.19;72.08;101115.34;5225632;28;20523;-68
2022/07/31 07:29:02;;;;;;;2.55;1.50;;;23.60;88.00;;;24.15;72.07;101107.41;5224799;28;20045;-67
2022/07/31 07:31:37;;;;;;;4.22;1.73;;;23.50;88.00;;;24.10;72.32;101113.69;5224462;28;20830;-68
2022/07/31 07:34:09;;;;;;;2.63;1.58;;;23.50;88.30;;;24.05;72.04;101110.22;5224756;28;20140;-67
2022/07/31 07:36:41;;;;;;;2.53;1.30;;;23.40;88.10;;;24.02;72.34;101106.72;5225862;28;20087;-69
2022/07/31 07:39:19;;;;;;;2.00;1.30;;;23.40;88.10;;;24.00;72.77;101104.09;5224508;28;20053;-68
2022/07/31 07:41:52;;;;;;;2.17;1.23;;;23.40;88.40;;;24.00;73.09;101104.09;5224774;28;20068;-67
2022/07/31 07:44:24;;;;;;;1.70;1.30;;;23.40;88.80;;;23.96;72.91;101097.06;5224834;28;20045;-68
2022/07/31 07:46:57;;;;;;;1.77;1.42;;;23.30;88.80;;;23.93;73.73;101098.88;5224140;28;20049;-67
2022/07/31 07:49:30;;;;;;;2.15;1.30;;;23.40;89.30;;;23.89;73.96;101098.06;5218563;28;20045;-68
2022/07/31 07:52:29;;;;;;;1.50;1.23;;;23.30;89.50;;;23.85;73.77;101083.03;5219101;28;20049;-65
2022/07/31 07:55:08;;;;;;;2.20;1.50;;;23.30;89.50;;;23.85;74.40;101082.16;5226321;28;20136;-66
2022/07/31 07:58:03;;;;;;;1.27;1.17;;;23.30;89.70;;;23.86;74.23;101089.22;5212965;28;20540;-67
2022/07/31 08:01:08;;;;;;;1.33;1.23;;;23.30;89.80;;;23.90;73.57;101078.50;5201048;28;20132;-65
2022/07/31 08:03:42;;;;;;;1.52;1.17;;;23.30;89.50;;;23.93;73.26;101083.81;5218160;28;20048;-64
2022/07/31 08:06:14;;;;;;;2.10;1.20;;;23.30;89.20;;;23.97;73.05;101088.16;5218195;28;20042;-64
2022/07/31 08:08:46;;;;;;;1.60;1.10;;;23.30;89.00;;;23.98;73.09;101084.59;5237316;28;20053;-65
2022/07/31 08:11:37;;;;;;;2.08;1.30;;;23.30;88.90;;;24.03;73.17;101079.19;5229579;28;20119;-66
2022/07/31 08:14:15;;;;;;;1.52;1.40;;;23.40;89.00;;;24.06;73.04;101072.06;5228283;28;20421;-66
2022/07/31 08:17:26;;;;;;;1.23;1.13;;;23.40;88.80;;;24.16;72.88;101077.22;5229543;28;20615;-65
2022/07/31 08:19:59;;;;;;;1.70;1.50;;;23.50;88.60;;;24.28;72.70;101077.00;5228094;28;20048;-66
2022/07/31 08:22:31;;;;;;;2.50;1.35;;;23.60;88.60;;;24.55;72.20;101065.88;5229436;28;20077;-64
2022/07/31 08:25:04;;;;;;;2.50;1.85;;;23.70;88.80;;;25.06;70.90;101079.16;5229540;28;20063;-65
2022/07/31 08:27:37;;;;;;;2.35;1.40;;;24.00;88.20;;;25.83;68.76;101072.16;5228166;28;20056;-65
2022/07/31 08:30:10;;;;;;;3.60;1.40;;;24.40;87.30;;;26.70;66.07;101072.59;5219801;28;20053;-67
2022/07/31 08:32:42;;;;;;;1.42;1.33;;;25.00;85.90;;;27.56;63.39;101071.88;5224108;28;20049;-67
2022/07/31 08:35:38;;;;;;;2.53;1.63;;;25.50;83.90;;;28.78;60.34;101076.78;5227937;28;20405;-66
2022/07/31 08:38:11;;;;;;;2.63;1.13;;;26.20;81.90;;;29.78;56.76;101074.75;5227627;28;20053;-68
2022/07/31 08:40:52;;;;;;;;;;;26.90;78.70;;;30.60;54.26;101073.09;5228413;28;20049;-66
2022/07/31 08:43:24;;;;;;;1.52;1.20;;;27.60;75.90;;;31.10;52.37;101071.78;5227851;28;19982;-66
2022/07/31 08:46:01;;;;;;;2.10;1.27;;;28.00;73.10;;;31.81;50.99;101076.47;5227754;28;20049;-66
2022/07/31 08:48:41;;;;;;;1.70;1.30;;;28.70;71.40;;;31.67;50.57;101067.31;5227312;28;20136;-67
2022/07/31 08:51:17;;;;;;;1.83;1.40;;;29.00;69.20;;;31.68;51.05;101069.03;5228980;28;20123;-67
2022/07/31 08:54:10;;;;;;;1.63;1.00;;;29.10;68.70;;;33.19;49.07;101072.03;5228637;28;20048;-66
2022/07/31 08:56:45;;;;;;;2.10;1.20;;;29.90;68.50;;;34.70;46.37;101074.09;5227692;28;20037;-66
2022/07/31 08:59:18;;;;;;;1.92;1.20;;;30.90;65.40;;;35.10;45.22;101065.34;5224518;28;20067;-66
2022/07/31 09:01:51;;;;;;;1.80;1.10;;;31.60;63.00;;;35.22;45.11;101065.44;5219025;28;20060;-67
2022/07/31 09:04:24;;;;;;;1.13;0.95;;;31.80;62.10;;;35.26;44.56;101066.94;5227214;28;20119;-67
2022/07/31 09:06:59;;;;;;;1.73;1.27;;;32.00;61.10;;;35.00;44.57;101070.44;5228125;28;20048;-66
2022/07/31 09:09:31;;;;;;;1.23;1.05;;;32.00;60.20;;;34.38;44.52;101067.91;5226523;28;20506;-67
2022/07/31 09:12:04;;;;;;;3.03;1.05;;;31.80;59.50;;;33.64;45.84;101074.00;5226168;28;20056;-66
2022/07/31 09:15:21;;;;;;;2.30;1.08;;;31.40;59.70;;;33.25;46.75;101062.72;5227502;28;20044;-66
2022/07/31 09:17:54;;;;;;;1.17;0.90;;;31.00;60.70;;;33.82;46.50;101063.09;5227567;28;20072;-67
2022/07/31 09:20:29;;;;;;;1.77;1.10;;;31.10;60.90;;;34.86;44.45;101062.28;5227321;28;20044;-65
2022/07/31 09:23:08;;;;;;;1.23;1.00;;;31.70;60.60;;;35.53;43.72;101061.59;5227004;28;20139;-66
2022/07/31 09:25:53;;;;;;;2.30;1.30;;;32.30;58.90;;;35.37;43.92;101052.72;5227076;28;20136;-66
2022/07/31 09:28:33;;;;;;;1.50;1.10;;;32.40;58.40;;;34.85;44.35;101057.84;5222887;28;20040;-64
2022/07/31 09:31:09;;;;;;;1.35;0.90;;;32.30;58.20;;;34.10;44.81;101051.56;5219615;28;20175;-66
2022/07/31 09:34:01;;;;;;;1.48;1.05;;;32.00;57.90;;;32.87;46.88;101050.41;5227888;28;20075;-65
2022/07/31 09:36:35;;;;;;;1.83;1.05;;;31.20;59.20;;;31.96;48.78;101041.66;5227831;28;20437;-65
2022/07/31 09:39:30;;;;;;;1.92;1.00;;;30.60;60.40;;;31.13;50.48;101050.13;5226077;28;20048;-66
2022/07/31 09:42:24;;;;;;;2.22;1.00;;;29.90;61.70;;;30.58;51.48;101044.50;5196474;28;20049;-65
2022/07/31 09:45:21;;;;;;;2.00;1.10;;;29.40;62.70;;;30.07;52.61;101043.13;5226691;28;20053;-65
2022/07/31 09:48:04;;;;;;;2.58;1.20;;;29.00;63.60;;;29.64;53.81;101039.53;5225468;28;20136;-64
2022/07/31 09:50:38;;;;;;;1.50;1.02;;;28.60;64.40;;;29.28;54.24;101031.97;5222591;28;20057;-64
2022/07/31 09:53:10;;;;;;;1.13;1.00;;;28.30;64.90;;;28.95;54.92;101033.25;5226179;28;20086;-65
2022/07/31 09:55:51;;;;;;;2.25;1.30;;;28.00;65.30;;;28.64;56.11;101026.31;5225089;28;20413;-65
2022/07/31 09:58:24;;;;;;;1.48;0.90;;;27.70;66.30;;;28.54;56.73;101022.19;5222906;28;20126;-65
2022/07/31 10:00:57;;;;;;;;;;;27.50;67.00;;;28.32;56.52;101028.34;5226324;28;20533;-64
2022/07/31 10:03:31;;;;;;;2.08;1.10;;;27.40;67.00;;;28.26;57.01;101033.00;5225384;28;19920;-65
2022/07/31 10:06:06;;;;;;;2.75;1.10;;;27.30;67.50;;;28.27;57.32;101026.72;5226227;28;20045;-65
2022/07/31 10:08:41;;;;;;;1.95;1.17;;;27.30;67.80;;;28.19;57.61;101024.31;5225822;28;20072;-64
2022/07/31 10:11:33;;;;;;;1.50;1.40;;;27.20;68.10;;;27.97;58.50;101033.97;5227300;28;20516;-65
2022/07/31 10:14:22;;;;;;;2.65;1.15;;;27.10;68.70;;;27.74;59.87;101043.66;5220035;28;20128;-64
2022/07/31 10:16:59;;;;;;;1.92;0.98;;;26.90;69.70;;;27.51;61.23;101038.13;5225566;28;20052;-64
2022/07/31 10:19:47;;;;;;;1.05;0.98;;;26.80;70.80;;;27.28;61.60;101038.84;5225523;28;20127;-65
2022/07/31 10:22:43;;;;;;;1.30;1.10;;;26.50;71.20;;;27.13;61.89;101044.69;5226963;28;20056;-64
2022/07/31 10:25:24;;;;;;;1.80;1.10;;;26.40;71.60;;;27.11;61.75;101038.47;5225411;28;20044;-64
2022/07/31 10:27:59;;;;;;;1.95;1.00;;;26.30;71.80;;;27.20;61.91;101036.41;5221574;28;20102;-65
2022/07/31 10:30:32;;;;;;;2.03;1.00;;;26.30;72.00;;;27.29;62.16;101030.75;5224643;28;20045;-65
2022/07/31 10:33:05;;;;;;;1.00;0.90;;;26.40;72.40;;;27.43;62.63;101033.00;5224322;28;20037;-65
2022/07/31 10:35:55;;;;;;;1.10;0.90;;;26.50;73.00;;;27.63;62.08;101032.38;5226866;28;20045;-65
2022/07/31 10:38:55;;;;;;;0.85;0.85;;;26.60;72.90;;;27.61;61.51;101026.22;5226575;28;20521;-63
2022/07/31 10:41:49;;;;;;;1.00;0.82;;;26.60;72.20;;;27.50;61.65;101018.50;5226151;23;20046;-80
2022/07/31 10:44:34;;;;;;;1.70;1.00;;;26.60;72.10;;;27.58;62.19;101013.81;5182969;28;20499;-80
2022/07/31 10:47:26;;;;;;;1.10;1.00;;;26.60;72.70;;;27.72;61.84;101013.38;5183386;28;20120;-78
2022/07/31 10:50:23;;;;;;;1.52;0.90;;;26.70;72.70;;;27.87;61.73;101011.13;5168901;28;20504;-81
2022/07/31 10:53:17;;;;;;;1.30;0.98;;;26.90;72.70;;;28.08;61.25;101007.72;5160013;28;20061;-77
2022/07/31 10:56:22;;;;;;;0.73;0.73;;;27.00;72.50;;;28.35;60.37;101009.44;5148271;28;20245;-80